Time;durP1;ratioP1;P1;durP2;ratioP2;P2;SDS_P1;SDS_P2;PMS_P1;PMS_P2;Temp;Humidity;BMP_temperature;BMP_pressure;BME280_temperature;BME280_humidity;BME280_pressure;Samples;Min_cycle;Max_cycle;Signal;HPM_P1;HPM_P2
2022/09/02 00:01:14;;;;;;;2.10;1.47;;;14.80;4.30;;;;;;5033044;28;20265;-57
2022/09/02 00:03:42;;;;;;;4.97;1.50;;;14.70;4.50;;;;;;5033051;28;20640;-59
2022/09/02 00:06:10;;;;;;;1.60;1.47;;;14.70;5.30;;;;;;5032826;28;20731;-58
2022/09/02 00:08:37;;;;;;;2.93;1.60;;;14.70;6.30;;;;;;5032290;28;20774;-59
2022/09/02 00:11:04;;;;;;;2.10;1.60;;;14.70;11.00;;;;;;5032717;28;20238;-60
2022/09/02 00:13:32;;;;;;;2.07;1.40;;;14.60;6.20;;;;;;5032446;28;20582;-60
2022/09/02 00:16:00;;;;;;;1.90;1.37;;;14.60;5.90;;;;;;5032161;28;20701;-58
2022/09/02 00:18:27;;;;;;;2.13;1.40;;;14.60;7.10;;;;;;5032394;28;20677;-58
2022/09/02 00:20:53;;;;;;;3.07;1.50;;;14.50;6.70;;;;;;5032464;28;20669;-58
2022/09/02 00:23:20;;;;;;;2.23;1.37;;;14.50;6.80;;;;;;5032651;28;20581;-57
2022/09/02 00:25:47;;;;;;;2.33;1.30;;;14.50;6.60;;;;;;5032180;28;20254;-58
2022/09/02 00:28:15;;;;;;;2.60;1.10;;;14.40;7.80;;;;;;5032288;28;20263;-57
2022/09/02 00:30:43;;;;;;;4.13;1.50;;;14.30;8.50;;;;;;5032753;28;20244;-54
2022/09/02 00:33:12;;;;;;;7.10;1.70;;;14.30;9.20;;;;;;5032293;28;20756;-57
2022/09/02 00:35:39;;;;;;;4.00;1.60;;;14.30;9.60;;;;;;5032435;28;20362;-57
2022/09/02 00:38:07;;;;;;;2.60;1.40;;;14.30;10.30;;;;;;5032237;28;20207;-57
2022/09/02 00:40:37;;;;;;;1.67;1.40;;;14.20;11.10;;;;;;5032324;28;20262;-58
2022/09/02 00:43:06;;;;;;;2.43;1.40;;;14.20;11.80;;;;;;5032082;28;20267;-59
2022/09/02 00:45:33;;;;;;;5.53;1.30;;;14.20;13.50;;;;;;5031872;28;20700;-59
2022/09/02 00:47:59;;;;;;;4.63;1.63;;;14.10;14.00;;;;;;5032149;28;20259;-59
2022/09/02 00:50:30;;;;;;;6.53;1.60;;;14.10;14.90;;;;;;5032042;28;20205;-59
2022/09/02 00:53:04;;;;;;;5.00;1.80;;;14.10;14.70;;;;;;5032151;28;20219;-59
2022/09/02 00:55:34;;;;;;;2.77;1.80;;;14.10;16.70;;;;;;5031960;28;20222;-57
2022/09/02 00:58:04;;;;;;;3.17;1.90;;;14.00;19.60;;;;;;5032023;28;20209;-55
2022/09/02 01:00:36;;;;;;;3.80;1.50;;;14.00;21.10;;;;;;5031947;28;20738;-58
2022/09/02 01:03:05;;;;;;;3.33;1.70;;;14.00;22.30;;;;;;5032508;28;20221;-56
2022/09/02 01:05:36;;;;;;;1.67;1.57;;;14.00;23.30;;;;;;5031714;28;20225;-57
2022/09/02 01:08:06;;;;;;;1.70;1.60;;;13.90;24.80;;;;;;5031802;28;20208;-58
2022/09/02 01:10:35;;;;;;;3.13;1.60;;;13.90;26.90;;;;;;5032198;28;20259;-59
2022/09/02 01:13:05;;;;;;;5.80;1.50;;;13.90;27.80;;;;;;5031942;28;20219;-59
2022/09/02 01:15:35;;;;;;;4.50;1.70;;;13.90;27.50;;;;;;5031856;28;20590;-58
2022/09/02 01:18:03;;;;;;;2.43;1.87;;;13.90;27.80;;;;;;5031848;28;20209;-59
2022/09/02 01:20:30;;;;;;;3.27;1.50;;;13.90;28.50;;;;;;5031843;28;20258;-59
2022/09/02 01:22:58;;;;;;;3.40;1.77;;;13.90;29.70;;;;;;5032028;28;20209;-58
2022/09/02 01:25:27;;;;;;;3.23;1.93;;;13.90;29.60;;;;;;5031764;28;20234;-57
2022/09/02 01:27:59;;;;;;;3.23;1.93;;;13.90;29.20;;;;;;5031526;28;20205;-57
2022/09/02 01:30:26;;;;;;;5.13;2.40;;;13.80;29.00;;;;;;5031859;28;20212;-57
2022/09/02 01:32:53;;;;;;;2.70;2.00;;;13.80;29.40;;;;;;5031589;28;20209;-59
2022/09/02 01:35:19;;;;;;;3.03;1.90;;;13.80;29.80;;;;;;5031623;28;20234;-58
2022/09/02 01:37:47;;;;;;;3.27;1.73;;;13.80;29.50;;;;;;5031470;28;20229;-57
2022/09/02 01:40:17;;;;;;;3.60;2.00;;;13.80;29.90;;;;;;5031504;28;20305;-59
2022/09/02 01:42:46;;;;;;;3.40;2.20;;;13.80;30.60;;;;;;5031279;28;20672;-59
2022/09/02 01:45:14;;;;;;;2.00;1.60;;;13.90;29.70;;;;;;5031508;28;20660;-59
2022/09/02 01:47:41;;;;;;;5.20;1.80;;;13.90;29.40;;;;;;5031087;28;20214;-58
2022/09/02 01:50:09;;;;;;;2.67;1.93;;;13.80;29.60;;;;;;5031733;28;20215;-58
2022/09/02 01:52:36;;;;;;;3.77;2.00;;;13.80;31.30;;;;;;5031647;28;20208;-58
2022/09/02 01:55:04;;;;;;;3.37;1.50;;;13.80;32.90;;;;;;5031615;28;20275;-58
2022/09/02 01:57:32;;;;;;;5.40;1.77;;;13.80;33.50;;;;;;5031266;28;20666;-58
2022/09/02 02:00:00;;;;;;;1.87;1.53;;;13.80;34.50;;;;;;5031338;28;20211;-58
2022/09/02 02:02:27;;;;;;;2.77;1.70;;;13.80;36.70;;;;;;5031734;28;20213;-58
2022/09/02 02:04:54;;;;;;;2.63;1.83;;;13.80;38.70;;;;;;5031622;28;20307;-58
2022/09/02 02:07:22;;;;;;;2.30;1.60;;;13.80;40.80;;;;;;5031246;28;20202;-59
2022/09/02 02:09:49;;;;;;;4.13;1.87;;;13.70;41.40;;;;;;5035033;28;20630;-59
2022/09/02 02:12:16;;;;;;;2.60;1.93;;;13.60;44.00;;;;;;5035050;28;20342;-58
2022/09/02 02:14:44;;;;;;;2.77;1.73;;;13.50;47.40;;;;;;5034824;28;20228;-58
2022/09/02 02:17:11;;;;;;;2.73;1.90;;;13.50;49.60;;;;;;5035181;28;20294;-59
2022/09/02 02:19:38;;;;;;;4.37;1.77;;;13.40;55.50;;;;;;5034926;28;20217;-58
2022/09/02 02:22:05;;;;;;;3.57;1.77;;;13.40;57.80;;;;;;5034991;28;20677;-57
2022/09/02 02:24:31;;;;;;;1.93;1.50;;;13.40;60.50;;;;;;5034844;28;20233;-57
2022/09/02 02:26:59;;;;;;;3.27;1.77;;;13.30;65.90;;;;;;5034514;28;20212;-57
2022/09/02 02:29:26;;;;;;;2.20;1.80;;;13.30;69.90;;;;;;5034608;28;20274;-59
2022/09/02 02:31:54;;;;;;;2.43;2.03;;;13.20;78.90;;;;;;5034891;28;20211;-58
2022/09/02 02:34:21;;;;;;;1.93;1.70;;;13.20;83.00;;;;;;5034376;28;20728;-58
2022/09/02 02:36:47;;;;;;;4.03;1.80;;;13.20;90.00;;;;;;5034337;28;20251;-58
2022/09/02 02:39:14;;;;;;;1.90;1.70;;;13.10;92.40;;;;;;5034359;28;20693;-58
2022/09/02 02:41:41;;;;;;;3.40;1.73;;;13.10;95.60;;;;;;5034196;28;20328;-58
2022/09/02 02:44:09;;;;;;;2.33;1.77;;;13.00;98.00;;;;;;5034250;28;20263;-58
2022/09/02 02:46:36;;;;;;;4.73;1.77;;;13.00;99.90;;;;;;5034251;28;20393;-59
2022/09/02 02:49:05;;;;;;;4.30;1.83;;;13.00;99.90;;;;;;5034324;28;20283;-57
2022/09/02 02:51:32;;;;;;;2.90;2.07;;;13.00;99.90;;;;;;5034278;28;20575;-57
2022/09/02 02:54:00;;;;;;;2.60;1.90;;;13.00;99.90;;;;;;5034168;28;20232;-57
2022/09/02 02:56:27;;;;;;;3.00;1.90;;;13.00;99.90;;;;;;5033805;28;20277;-58
2022/09/02 02:58:53;;;;;;;1.70;1.60;;;13.00;99.90;;;;;;5034250;28;20203;-58
2022/09/02 03:01:20;;;;;;;2.27;1.60;;;12.90;99.90;;;;;;5034016;28;20203;-52
2022/09/02 03:03:47;;;;;;;2.67;1.67;;;13.00;99.90;;;;;;5034138;28;20222;-56
2022/09/02 03:06:15;;;;;;;2.97;1.60;;;12.90;99.90;;;;;;5033638;28;20584;-54
2022/09/02 03:08:42;;;;;;;3.83;1.90;;;12.90;99.90;;;;;;5033708;28;20673;-50
2022/09/02 03:11:09;;;;;;;2.27;1.90;;;12.90;99.90;;;;;;5033943;28;20210;-57
2022/09/02 03:13:36;;;;;;;3.33;1.50;;;12.80;99.90;;;;;;5033903;28;20230;-50
2022/09/02 03:16:04;;;;;;;2.43;1.63;;;12.80;99.90;;;;;;5033548;28;20211;-55
2022/09/02 03:18:31;;;;;;;5.70;1.77;;;12.80;99.90;;;;;;5033502;28;20770;-55
2022/09/02 03:20:58;;;;;;;6.90;1.60;;;12.80;99.90;;;;;;5032693;28;20293;-54
2022/09/02 03:23:26;;;;;;;1.97;1.63;;;12.80;99.90;;;;;;5033311;28;20264;-56
2022/09/02 03:25:53;;;;;;;3.97;1.70;;;12.70;99.90;;;;;;5032959;28;20697;-56
2022/09/02 03:28:20;;;;;;;2.83;2.00;;;12.60;99.90;;;;;;5033439;28;20254;-57
2022/09/02 03:30:47;;;;;;;6.27;2.07;;;12.60;99.90;;;;;;5033427;28;20268;-55
2022/09/02 03:33:13;;;;;;;2.20;1.80;;;12.50;99.90;;;;;;5033346;28;20253;-54
2022/09/02 03:35:42;;;;;;;2.10;1.80;;;12.50;99.90;;;;;;5033163;28;20210;-56
2022/09/02 03:38:11;;;;;;;2.43;1.77;;;12.50;99.90;;;;;;5032882;28;20230;-56
2022/09/02 03:40:40;;;;;;;3.90;1.70;;;12.50;99.90;;;;;;5033065;28;20257;-55
2022/09/02 03:43:07;;;;;;;1.70;1.60;;;12.50;99.90;;;;;;5033147;28;20213;-57
2022/09/02 03:45:34;;;;;;;3.73;1.80;;;12.50;99.90;;;;;;5032746;28;20219;-57
2022/09/02 03:48:00;;;;;;;3.13;1.90;;;12.50;99.90;;;;;;5032719;28;20267;-57
2022/09/02 03:50:30;;;;;;;2.40;1.60;;;12.50;99.90;;;;;;5033099;28;20207;-54
2022/09/02 03:52:57;;;;;;;3.03;1.80;;;12.40;99.90;;;;;;5033041;28;20211;-55
2022/09/02 03:55:25;;;;;;;2.10;1.70;;;12.40;99.90;;;;;;5033191;28;20232;-55
2022/09/02 03:57:54;;;;;;;2.47;1.83;;;12.30;99.90;;;;;;5032538;28;20277;-55
2022/09/02 04:00:24;;;;;;;2.27;1.77;;;12.30;99.90;;;;;;5033038;28;20268;-53
2022/09/02 04:02:54;;;;;;;1.67;1.50;;;12.30;99.90;;;;;;5032635;28;20280;-58
2022/09/02 04:05:21;;;;;;;4.20;1.80;;;12.30;99.90;;;;;;5032795;28;20230;-56
2022/09/02 04:07:50;;;;;;;2.37;1.80;;;12.20;99.90;;;;;;5032515;28;20203;-57
2022/09/02 04:10:16;;;;;;;1.80;1.50;;;12.20;99.90;;;;;;5032752;28;20260;-56
2022/09/02 04:12:43;;;;;;;2.40;1.90;;;12.20;99.90;;;;;;5032536;28;20625;-56
2022/09/02 04:15:12;;;;;;;2.23;1.83;;;12.20;99.90;;;;;;5032467;28;20234;-55
2022/09/02 04:17:40;;;;;;;3.77;1.47;;;12.20;99.90;;;;;;5032113;28;20729;-57
2022/09/02 04:20:10;;;;;;;4.87;2.00;;;12.20;99.90;;;;;;5032778;28;20630;-56
2022/09/02 04:22:36;;;;;;;4.00;1.80;;;12.20;99.90;;;;;;5032270;28;20658;-55
2022/09/02 04:25:05;;;;;;;4.00;2.17;;;12.20;99.90;;;;;;5032421;28;20230;-62
2022/09/02 04:27:32;;;;;;;3.93;2.30;;;12.20;99.90;;;;;;5032171;28;20199;-58
2022/09/02 04:29:58;;;;;;;6.77;2.27;;;12.20;99.90;;;;;;5032415;28;20206;-55
2022/09/02 04:32:26;;;;;;;2.23;1.80;;;12.20;99.90;;;;;;5030370;28;20249;-58
2022/09/02 04:34:53;;;;;;;4.57;1.97;;;12.20;99.90;;;;;;5031387;28;20234;-58
2022/09/02 04:37:20;;;;;;;4.70;1.70;;;12.20;99.90;;;;;;5032376;28;20242;-58
2022/09/02 04:39:46;;;;;;;3.23;1.93;;;12.20;99.90;;;;;;5032386;28;20206;-59
2022/09/02 04:42:13;;;;;;;6.77;2.20;;;12.20;1.00;;;;;;5032963;28;20268;-59
2022/09/02 04:44:40;;;;;;;2.37;1.73;;;12.20;1.00;;;;;;5031467;28;20287;-59
2022/09/02 04:47:06;;;;;;;3.70;1.87;;;12.20;1.00;;;;;;5031651;28;20237;-57
2022/09/02 04:49:34;;;;;;;6.37;2.70;;;12.20;1.00;;;;;;5031667;28;20240;-59
2022/09/02 04:52:01;;;;;;;3.73;2.20;;;12.30;1.00;;;;;;5031662;28;20237;-59
2022/09/02 04:54:28;;;;;;;2.67;1.77;;;12.30;1.00;;;;;;5031401;28;20652;-58
2022/09/02 04:56:54;;;;;;;2.40;1.87;;;12.30;1.00;;;;;;5031581;28;20203;-59
2022/09/02 04:59:21;;;;;;;3.73;2.40;;;12.40;1.00;;;;;;5031721;28;20202;-59
2022/09/02 05:01:49;;;;;;;5.73;3.20;;;12.40;1.00;;;;;;5032000;28;20272;-58
2022/09/02 05:04:15;;;;;;;42.43;23.67;;;12.40;1.00;;;;;;5031965;28;20631;-56
2022/09/02 05:06:45;;;;;;;5.10;3.30;;;12.40;1.00;;;;;;5031892;28;20206;-59
2022/09/02 05:09:11;;;;;;;4.00;2.03;;;12.40;1.00;;;;;;5031766;28;20205;-59
2022/09/02 05:11:39;;;;;;;4.13;2.20;;;12.50;1.00;;;;;;5031430;28;20252;-59
2022/09/02 05:14:07;;;;;;;3.17;2.17;;;12.50;1.00;;;;;;5031352;28;20280;-58
2022/09/02 05:16:37;;;;;;;2.57;2.00;;;12.60;1.00;;;;;;5031413;28;20260;-56
2022/09/02 05:19:05;;;;;;;3.63;2.00;;;12.60;1.00;;;;;;5011809;28;20780;-59
2022/09/02 05:21:32;;;;;;;5.10;2.27;;;12.70;1.00;;;;;;5024266;28;20265;-62
2022/09/02 05:24:00;;;;;;;2.30;1.80;;;12.80;1.00;;;;;;5031662;28;20222;-63
2022/09/02 05:26:26;;;;;;;6.43;1.70;;;12.80;1.00;;;;;;5031241;28;20736;-63
2022/09/02 05:28:53;;;;;;;4.13;1.80;;;12.80;1.00;;;;;;5031779;28;20203;-63
2022/09/02 05:31:21;;;;;;;3.80;2.00;;;12.90;1.00;;;;;;5031767;28;20763;-62
2022/09/02 05:33:48;;;;;;;7.17;2.00;;;13.00;1.00;;;;;;5031314;28;20229;-62
2022/09/02 05:36:18;;;;;;;2.20;1.80;;;13.00;1.00;;;;;;5031366;28;20260;-62
2022/09/02 05:38:45;;;;;;;3.97;1.80;;;13.10;1.00;;;;;;5030680;28;20227;-62
2022/09/02 05:41:17;;;;;;;2.37;1.70;;;13.20;1.00;;;;;;5031656;28;20238;-62
2022/09/02 05:43:44;;;;;;;6.23;1.70;;;13.30;1.00;;;;;;5033287;28;20274;-61
2022/09/02 05:46:16;;;;;;;2.30;1.90;;;13.30;1.00;;;;;;5034695;28;20202;-57
2022/09/02 05:51:27;;;;;;;2.77;1.83;;;13.50;99.90;;;;;;5035313;28;20253;-57
2022/09/02 05:53:54;;;;;;;2.47;1.80;;;13.60;99.90;;;;;;5034689;28;20233;-58
2022/09/02 05:56:23;;;;;;;2.27;2.00;;;13.60;99.90;;;;;;5035043;28;20204;-60
2022/09/02 05:58:50;;;;;;;5.17;2.40;;;13.70;99.90;;;;;;5034499;28;20226;-57
2022/09/02 06:01:19;;;;;;;3.77;1.87;;;13.70;99.90;;;;;;5035022;28;20683;-58
2022/09/02 06:03:46;;;;;;;2.80;1.80;;;13.80;99.90;;;;;;5034846;28;20232;-64
2022/09/02 06:06:13;;;;;;;4.10;1.70;;;13.90;99.90;;;;;;5034896;28;20209;-61
2022/09/02 06:08:40;;;;;;;3.30;2.30;;;13.80;99.90;;;;;;5034997;28;20278;-62
2022/09/02 06:11:09;;;;;;;2.30;1.70;;;13.80;99.90;;;;;;5034441;28;20208;-64
2022/09/02 06:13:39;;;;;;;3.80;1.70;;;13.80;99.90;;;;;;5034864;28;20632;-63
2022/09/02 06:16:07;;;;;;;5.33;2.00;;;13.80;99.90;;;;;;5034547;28;20257;-63
2022/09/02 06:18:34;;;;;;;5.73;1.63;;;13.80;99.90;;;;;;5035000;28;20228;-62
2022/09/02 06:21:03;;;;;;;5.63;1.80;;;13.80;99.90;;;;;;5034296;28;20215;-60
2022/09/02 06:23:30;;;;;;;6.20;2.13;;;13.90;99.90;;;;;;5034743;28;20236;-62
2022/09/02 06:25:57;;;;;;;2.80;1.67;;;13.90;99.90;;;;;;5034436;28;20208;-60
2022/09/02 06:28:23;;;;;;;3.80;2.00;;;14.00;99.90;;;;;;5031085;28;20208;-59
2022/09/02 06:30:51;;;;;;;3.10;1.90;;;14.00;99.90;;;;;;5031317;28;20209;-61
2022/09/02 06:33:18;;;;;;;3.97;2.17;;;14.10;99.90;;;;;;5033989;28;20672;-57
2022/09/02 06:35:45;;;;;;;4.33;2.27;;;14.30;99.90;;;;;;5033796;28;20219;-61
2022/09/02 06:38:13;;;;;;;3.87;2.00;;;14.30;99.90;;;;;;5033497;28;20268;-61
2022/09/02 06:40:46;;;;;;;3.67;2.27;;;14.40;99.90;;;;;;5033696;28;20213;-60
2022/09/02 06:43:13;;;;;;;4.87;2.13;;;14.50;99.90;;;;;;5033472;28;20271;-60
2022/09/02 06:45:40;;;;;;;4.80;2.10;;;14.50;99.90;;;;;;5033090;28;20225;-58
2022/09/02 06:48:09;;;;;;;4.27;2.00;;;14.60;99.90;;;;;;5032155;28;20311;-56
2022/09/02 06:50:38;;;;;;;4.13;2.03;;;14.60;99.90;;;;;;5033265;28;20262;-57
2022/09/02 06:53:07;;;;;;;5.23;2.20;;;14.70;99.90;;;;;;5033333;28;20255;-59
2022/09/02 06:55:35;;;;;;;3.50;1.80;;;14.80;99.90;;;;;;5033186;28;20233;-58
2022/09/02 06:58:02;;;;;;;4.40;1.70;;;14.90;99.90;;;;;;5032765;28;20222;-57
2022/09/02 07:00:29;;;;;;;6.73;2.43;;;15.00;99.90;;;;;;5030961;28;20203;-59
2022/09/02 07:05:38;;;;;;;6.30;2.80;;;15.40;99.90;;;;;;5032622;28;20692;-57
2022/09/02 07:08:04;;;;;;;5.87;2.17;;;15.50;99.90;;;;;;5033132;28;20206;-60
2022/09/02 07:10:31;;;;;;;3.60;2.00;;;15.70;99.90;;;;;;5032153;28;20218;-58
2022/09/02 07:12:58;;;;;;;4.90;2.07;;;15.80;99.90;;;;;;5033117;28;20226;-54
2022/09/02 07:15:24;;;;;;;5.10;2.17;;;16.00;99.90;;;;;;5032908;28;20230;-57
2022/09/02 07:17:52;;;;;;;3.90;2.00;;;16.10;99.90;;;;;;5032781;28;20253;-54
2022/09/02 07:20:19;;;;;;;3.13;2.00;;;16.20;99.90;;;;;;5032848;28;20249;-57
2022/09/02 07:22:48;;;;;;;2.10;1.60;;;16.40;99.90;;;;;;5032334;28;20210;-59
2022/09/02 07:25:16;;;;;;;3.07;1.70;;;16.60;99.90;;;;;;5032562;28;20284;-59
2022/09/02 07:27:43;;;;;;;6.63;2.77;;;16.80;99.90;;;;;;5032147;28;20217;-60
2022/09/02 07:30:11;;;;;;;4.40;2.00;;;16.90;99.90;;;;;;5032722;28;20213;-58
2022/09/02 07:32:38;;;;;;;4.43;1.63;;;17.10;99.90;;;;;;5032387;28;20212;-58
2022/09/02 07:35:08;;;;;;;6.77;1.97;;;17.20;99.90;;;;;;5032546;28;20230;-57
2022/09/02 07:37:34;;;;;;;9.07;1.80;;;17.40;95.80;;;;;;5031824;28;20638;-59
2022/09/02 07:40:05;;;;;;;4.83;2.10;;;17.60;99.90;;;;;;5032539;28;20260;-59
2022/09/02 07:42:31;;;;;;;3.90;1.80;;;17.60;99.90;;;;;;5032725;28;20727;-57
2022/09/02 07:44:58;;;;;;;5.60;1.97;;;17.70;99.90;;;;;;5032265;28;20238;-58
2022/09/02 07:47:25;;;;;;;4.63;2.03;;;17.80;99.90;;;;;;5022120;28;20207;-58
2022/09/02 07:49:51;;;;;;;5.97;1.70;;;17.90;98.90;;;;;;5030022;28;20260;-60
2022/09/02 07:52:18;;;;;;;4.80;2.00;;;18.10;97.50;;;;;;5032185;28;20215;-59
2022/09/02 07:54:45;;;;;;;6.40;2.13;;;18.20;91.90;;;;;;5031126;28;20240;-57
2022/09/02 07:57:13;;;;;;;3.43;1.90;;;18.30;90.60;;;;;;5032307;28;20252;-56
2022/09/02 07:59:39;;;;;;;5.20;2.03;;;18.50;79.80;;;;;;5031885;28;20258;-53
2022/09/02 08:02:06;;;;;;;5.93;1.70;;;18.60;79.80;;;;;;5031831;28;20256;-56
2022/09/02 08:04:33;;;;;;;5.00;1.90;;;18.70;83.50;;;;;;5031126;28;20214;-56
2022/09/02 08:06:59;;;;;;;5.83;1.83;;;18.80;90.30;;;;;;5029775;28;20644;-54
2022/09/02 08:09:26;;;;;;;2.87;1.80;;;18.90;85.90;;;;;;5031276;28;20202;-58
2022/09/02 08:11:53;;;;;;;5.20;2.03;;;19.10;84.40;;;;;;5032209;28;20214;-63
2022/09/02 08:14:24;;;;;;;3.30;2.00;;;19.20;92.60;;;;;;5032382;28;20257;-55
2022/09/02 08:16:52;;;;;;;4.73;1.90;;;19.40;90.60;;;;;;5032059;28;20301;-54
2022/09/02 08:19:18;;;;;;;8.03;1.80;;;19.50;99.90;;;;;;5031323;28;20272;-58
2022/09/02 08:21:45;;;;;;;4.27;1.90;;;19.70;84.40;;;;;;5032692;28;20202;-57
2022/09/02 08:24:12;;;;;;;6.13;2.03;;;19.80;81.00;;;;;;5032575;28;20226;-57
2022/09/02 08:26:38;;;;;;;6.63;2.20;;;20.00;75.50;;;;;;5032294;28;20264;-59
2022/09/02 08:29:06;;;;;;;2.33;1.60;;;20.10;77.40;;;;;;5032020;28;20206;-59
2022/09/02 08:31:36;;;;;;;1.97;1.50;;;20.20;82.10;;;;;;5032131;28;20202;-58
2022/09/02 08:34:03;;;;;;;5.07;1.53;;;20.40;82.20;;;;;;5032277;28;20644;-55
2022/09/02 08:36:29;;;;;;;5.00;1.70;;;20.60;69.80;;;;;;5032430;28;20206;-58
2022/09/02 08:38:56;;;;;;;7.50;1.70;;;20.70;77.00;;;;;;5032148;28;20640;-58
2022/09/02 08:41:25;;;;;;;8.07;2.20;;;20.70;73.50;;;;;;5032052;28;20677;-58
2022/09/02 08:43:54;;;;;;;4.27;1.60;;;20.60;64.10;;;;;;5031649;28;20337;-55
2022/09/02 08:46:25;;;;;;;8.03;2.47;;;20.70;68.40;;;;;;5031703;28;20212;-59
2022/09/02 08:48:56;;;;;;;7.90;2.00;;;20.80;69.30;;;;;;5032078;28;20213;-59
2022/09/02 08:51:29;;;;;;;5.07;1.40;;;20.80;63.60;;;;;;5032197;28;20205;-58
2022/09/02 08:54:02;;;;;;;3.70;1.63;;;21.00;60.70;;;;;;5032183;28;20222;-59
2022/09/02 08:56:30;;;;;;;3.93;1.90;;;21.00;55.90;;;;;;5031972;28;20202;-59
2022/09/02 08:58:57;;;;;;;3.20;1.50;;;21.00;63.10;;;;;;5031576;28;20229;-59
2022/09/02 09:01:32;;;;;;;5.87;1.87;;;21.10;58.90;;;;;;5032023;28;20209;-59
2022/09/02 09:04:32;;;;;;;5.63;1.77;;;21.20;60.40;;;;;;5031979;28;20264;-59
2022/09/02 09:07:09;;;;;;;4.67;1.40;;;21.20;58.60;;;;;;5025544;28;20206;-57
2022/09/02 09:09:51;;;;;;;7.00;4.00;;;21.50;55.90;;;;;;5031969;28;20626;-55
2022/09/02 09:12:27;;;;;;;5.57;1.90;;;21.60;59.30;;;;;;5031872;28;20210;-58
2022/09/02 09:15:01;;;;;;;4.57;2.93;;;21.80;58.40;;;;;;5031720;28;20328;-57
2022/09/02 09:17:33;;;;;;;5.27;2.33;;;21.80;58.50;;;;;;5031592;28;20202;-60
2022/09/02 09:20:06;;;;;;;3.07;2.00;;;21.60;53.60;;;;;;5036180;28;20230;-57
2022/09/02 09:22:36;;;;;;;5.90;1.90;;;21.40;55.30;;;;;;5036335;28;20206;-56
2022/09/02 09:25:06;;;;;;;4.97;1.67;;;21.40;56.30;;;;;;5035712;28;20321;-59
2022/09/02 09:27:32;;;;;;;4.67;1.67;;;21.40;51.90;;;;;;5035762;28;20206;-59
2022/09/02 09:30:00;;;;;;;4.50;1.77;;;21.40;52.90;;;;;;5035542;28;20669;-59
2022/09/02 09:32:32;;;;;;;4.57;1.60;;;21.50;59.10;;;;;;5035791;28;20284;-59
2022/09/02 09:35:02;;;;;;;3.47;1.53;;;21.60;56.90;;;;;;5036096;28;20230;-60
2022/09/02 09:37:31;;;;;;;4.87;1.77;;;21.70;61.90;;;;;;5035401;28;20214;-60
2022/09/02 09:39:58;;;;;;;4.50;1.47;;;21.90;56.40;;;;;;5035494;28;20650;-60
2022/09/02 09:42:33;;;;;;;3.03;1.67;;;22.20;63.00;;;;;;5035499;28;20206;-58
2022/09/02 09:45:00;;;;;;;3.83;1.40;;;22.70;67.30;;;;;;5030259;28;20245;-65
2022/09/02 09:47:26;;;;;;;1.50;1.30;;;23.10;67.20;;;;;;5029129;28;20210;-63
2022/09/02 09:50:10;;;;;;;5.33;1.63;;;23.20;62.20;;;;;;5034055;28;20214;-63
2022/09/02 09:52:36;;;;;;;5.10;1.60;;;23.10;58.80;;;;;;5034909;28;20586;-62
2022/09/02 09:55:11;;;;;;;2.63;1.60;;;22.90;60.50;;;;;;5034882;28;20230;-63
2022/09/02 09:57:38;;;;;;;2.60;1.60;;;22.90;57.20;;;;;;5034487;28;20680;-62
2022/09/02 10:00:13;;;;;;;3.40;1.43;;;22.80;61.80;;;;;;5034795;28;20222;-63
2022/09/02 10:02:47;;;;;;;6.50;3.17;;;22.80;61.60;;;;;;5033594;28;20213;-62
2022/09/02 10:05:28;;;;;;;3.73;1.97;;;22.70;53.10;;;;;;5033018;28;20222;-62
2022/09/02 10:07:56;;;;;;;7.03;1.97;;;22.80;56.20;;;;;;5032704;28;20210;-62
2022/09/02 10:10:24;;;;;;;3.60;2.00;;;22.60;54.10;;;;;;5032864;28;20237;-61
2022/09/02 10:12:54;;;;;;;3.00;1.50;;;22.80;52.20;;;;;;5032860;28;20844;-62
2022/09/02 10:15:34;;;;;;;4.53;1.40;;;22.90;54.10;;;;;;5032784;28;20230;-62
2022/09/02 10:18:12;;;;;;;4.30;1.73;;;23.20;58.70;;;;;;5032571;28;20198;-62
2022/09/02 10:20:49;;;;;;;4.60;1.60;;;23.20;53.60;;;;;;5033419;28;20226;-63
2022/09/02 10:23:42;;;;;;;4.17;1.57;;;23.50;56.20;;;;;;5032919;28;20201;-63
2022/09/02 10:26:17;;;;;;;3.20;1.30;;;23.40;54.40;;;;;;5022264;28;20260;-63
2022/09/02 10:29:02;;;;;;;3.00;1.30;;;23.60;49.80;;;;;;5031810;28;20668;-63
2022/09/02 10:31:36;;;;;;;4.17;1.67;;;23.80;54.80;;;;;;5032752;28;20206;-62
2022/09/02 10:34:13;;;;;;;3.03;1.40;;;24.00;52.50;;;;;;5032273;28;20660;-64
2022/09/02 10:36:58;;;;;;;4.47;1.50;;;24.00;55.50;;;;;;5032239;28;20304;-62
2022/09/02 10:39:38;;;;;;;3.07;1.50;;;24.00;56.40;;;;;;5031502;28;20230;-62
2022/09/02 10:42:13;;;;;;;16.23;5.90;;;24.00;50.30;;;;;;5030842;28;20206;-62
2022/09/02 10:44:47;;;;;;;4.07;2.00;;;23.90;63.90;;;;;;5031525;28;20268;-62
2022/09/02 10:47:23;;;;;;;4.00;2.60;;;23.90;56.50;;;;;;5031863;28;20617;-62
2022/09/02 10:50:01;;;;;;;8.37;4.37;;;23.70;45.80;;;;;;5032133;28;20202;-62
2022/09/02 10:52:57;;;;;;;6.37;3.37;;;23.70;45.10;;;;;;5032270;28;20202;-62
2022/09/02 10:55:36;;;;;;;2.73;1.50;;;23.60;44.80;;;;;;5031585;28;20275;-62
2022/09/02 10:58:07;;;;;;;2.70;1.60;;;23.60;42.00;;;;;;5033046;28;20719;-62
2022/09/02 11:00:35;;;;;;;3.83;1.80;;;23.60;42.80;;;;;;5033297;28;20646;-62
2022/09/02 11:03:11;;;;;;;4.63;1.97;;;23.50;41.60;;;;;;5033633;28;20260;-63
2022/09/02 11:05:46;;;;;;;4.30;1.73;;;23.30;42.60;;;;;;5033520;28;20210;-63
2022/09/02 11:08:23;;;;;;;3.70;2.00;;;23.20;44.80;;;;;;5032899;28;20210;-62
2022/09/02 11:10:59;;;;;;;4.40;1.97;;;23.40;44.20;;;;;;5033702;28;20212;-63
2022/09/02 11:13:31;;;;;;;3.90;1.80;;;23.40;45.60;;;;;;5031748;28;20275;-63
2022/09/02 11:16:04;;;;;;;2.17;1.43;;;23.50;42.80;;;;;;5031727;28;20673;-63
2022/09/02 11:18:36;;;;;;;6.03;4.20;;;23.60;51.60;;;;;;5031319;28;20198;-63
2022/09/02 11:21:06;;;;;;;3.93;1.70;;;23.90;49.80;;;;;;5031585;28;20649;-63
2022/09/02 11:23:41;;;;;;;7.83;1.63;;;24.30;51.10;;;;;;5031729;28;20233;-63
2022/09/02 11:26:14;;;;;;;2.00;1.40;;;24.50;48.00;;;;;;5031275;28;20201;-61
2022/09/02 11:28:47;;;;;;;2.07;1.50;;;24.70;44.70;;;;;;5031321;28;20202;-62
2022/09/02 11:31:21;;;;;;;3.47;1.77;;;24.70;40.00;;;;;;5031586;28;20206;-63
2022/09/02 11:33:54;;;;;;;2.60;1.27;;;24.80;39.50;;;;;;5031826;28;20226;-62
2022/09/02 11:36:21;;;;;;;2.53;1.30;;;24.60;35.00;;;;;;5031345;28;20669;-62
2022/09/02 11:38:54;;;;;;;1.93;1.37;;;24.60;37.50;;;;;;5030764;28;20206;-62
2022/09/02 11:41:48;;;;;;;2.03;1.47;;;24.70;34.70;;;;;;5030260;28;20252;-62
2022/09/02 11:44:41;;;;;;;1.60;1.10;;;24.90;36.90;;;;;;5031073;28;20292;-62
2022/09/02 11:47:35;;;;;;;2.10;1.33;;;25.00;36.00;;;;;;5031169;28;20209;-62
2022/09/02 11:50:33;;;;;;;1.30;1.00;;;25.10;35.50;;;;;;5031444;28;20690;-62
2022/09/02 11:53:13;;;;;;;1.23;1.10;;;25.10;35.80;;;;;;5032921;28;20206;-62
2022/09/02 11:55:43;;;;;;;1.40;0.93;;;25.20;29.10;;;;;;5032710;28;20224;-62
2022/09/02 11:58:10;;;;;;;1.10;0.93;;;24.70;29.00;;;;;;5032082;28;20215;-62
2022/09/02 12:01:03;;;;;;;2.00;1.40;;;24.50;24.00;;;;;;5032617;28;20226;-62
2022/09/02 12:03:32;;;;;;;1.60;1.33;;;24.40;26.40;;;;;;5032629;28;20246;-62
2022/09/02 12:06:09;;;;;;;1.37;0.93;;;24.20;24.70;;;;;;5031907;28;20223;-62
2022/09/02 12:09:10;;;;;;;1.50;1.10;;;23.90;21.10;;;;;;5032121;28;20217;-62
2022/09/02 12:11:53;;;;;;;1.40;1.20;;;24.00;20.00;;;;;;5032459;28;20210;-62
2022/09/02 12:15:04;;;;;;;1.93;1.20;;;23.60;17.70;;;;;;5032262;28;20261;-62
2022/09/02 12:18:10;;;;;;;3.20;1.40;;;23.50;16.90;;;;;;5031809;28;20217;-62
2022/09/02 12:21:13;;;;;;;1.63;1.23;;;23.90;25.00;;;;;;5024636;28;20700;-62
2022/09/02 12:24:23;;;;;;;2.63;1.40;;;24.20;23.90;;;;;;5031963;28;20933;-62
2022/09/02 12:27:16;;;;;;;1.43;1.30;;;24.10;23.40;;;;;;5031598;28;20206;-62
2022/09/02 12:29:44;;;;;;;4.30;1.40;;;24.30;26.40;;;;;;5031931;28;20637;-63
2022/09/02 12:32:11;;;;;;;2.53;1.37;;;24.50;24.00;;;;;;5032096;28;20206;-63
2022/09/02 12:35:06;;;;;;;1.53;1.27;;;24.70;24.10;;;;;;5030953;28;20230;-62
2022/09/02 12:37:53;;;;;;;3.30;1.23;;;24.60;21.60;;;;;;5023773;28;20259;-54
2022/09/02 12:40:26;;;;;;;1.37;1.13;;;24.50;22.40;;;;;;5030319;28;20598;-53
2022/09/02 12:42:59;;;;;;;2.70;1.33;;;24.20;21.90;;;;;;5031526;28;20206;-56
2022/09/02 12:45:31;;;;;;;3.40;1.43;;;23.90;18.20;;;;;;5031852;28;20608;-55
2022/09/02 12:48:01;;;;;;;2.53;1.47;;;23.70;15.00;;;;;;5031290;28;20213;-53
2022/09/02 12:50:31;;;;;;;1.97;1.50;;;23.70;17.10;;;;;;5032034;28;20202;-52
2022/09/02 12:53:14;;;;;;;1.50;1.30;;;23.60;15.30;;;;;;5031372;28;20294;-54
2022/09/02 12:55:52;;;;;;;1.70;1.30;;;23.60;13.40;;;;;;5031926;28;20207;-59
2022/09/02 12:58:22;;;;;;;1.40;1.00;;;23.80;16.50;;;;;;5031411;28;20214;-58
2022/09/02 13:01:00;;;;;;;1.93;1.20;;;24.20;19.90;;;;;;5031160;28;20230;-58
2022/09/02 13:03:45;;;;;;;2.70;1.50;;;24.40;21.40;;;;;;5031376;28;20583;-58
2022/09/02 13:06:19;;;;;;;1.70;1.20;;;24.40;19.90;;;;;;5031250;28;20202;-58
2022/09/02 13:09:17;;;;;;;2.47;1.50;;;24.30;19.10;;;;;;5031305;28;20259;-55
2022/09/02 13:12:07;;;;;;;3.00;1.50;;;24.40;20.50;;;;;;5030144;28;20214;-64